createdAt,value
2019-02-19T19:37:07.184Z,10.28
2019-02-19T19:39:33.456Z,10.85
2019-02-19T19:41:59.806Z,10.63
2019-02-19T19:44:26.186Z,10.65
2019-02-19T19:46:52.491Z,11.65
2019-02-19T19:49:18.811Z,11.95
2019-02-19T19:51:45.063Z,14.20
2019-02-19T19:54:11.349Z,11.38
2019-02-19T19:56:37.744Z,13.30
2019-02-19T19:59:13.055Z,11.18
2019-02-19T20:01:39.403Z,10.63
2019-02-19T20:04:05.678Z,9.08
2019-02-19T20:06:31.960Z,9.08
2019-02-19T20:08:58.395Z,10.03
2019-02-19T20:11:24.838Z,10.30
2019-02-19T20:13:51.302Z,9.65
2019-02-19T20:16:18.123Z,9.33
2019-02-19T20:18:44.446Z,11.15
2019-02-19T20:21:10.790Z,9.93
2019-02-19T20:23:37.351Z,10.15
2019-02-19T20:26:03.574Z,10.95
2019-02-19T20:28:29.867Z,9.33
2019-02-19T20:30:56.193Z,10.13
2019-02-19T20:33:22.723Z,9.88
2019-02-19T20:35:48.989Z,10.10
2019-02-19T20:38:15.312Z,9.10
2019-02-19T20:40:41.586Z,8.60
2019-02-19T20:43:07.878Z,8.63
2019-02-19T20:45:34.201Z,9.38
2019-02-19T20:48:00.542Z,9.75
2019-02-19T20:50:26.860Z,9.78
2019-02-19T20:52:53.144Z,9.68
2019-02-19T20:55:19.516Z,9.68
2019-02-19T20:57:45.791Z,10.32
2019-02-19T21:00:16.615Z,10.58
2019-02-19T21:02:43.159Z,10.78
2019-02-19T21:05:10.107Z,10.25
2019-02-19T21:07:36.477Z,10.15
2019-02-19T21:10:05.672Z,11.43
2019-02-19T21:12:32.326Z,10.90
2019-02-19T21:14:58.976Z,10.23
2019-02-19T21:17:25.601Z,11.80
2019-02-19T21:19:51.991Z,12.30
2019-02-19T21:22:18.485Z,12.33
2019-02-19T21:24:46.758Z,12.07
2019-02-19T21:27:13.196Z,11.78
2019-02-19T21:29:39.875Z,12.20
2019-02-19T21:32:09.153Z,11.95
2019-02-19T21:34:35.531Z,12.23
2019-02-19T21:37:01.842Z,10.88
2019-02-19T21:39:28.185Z,10.88
2019-02-19T21:41:54.446Z,11.83
2019-02-19T21:44:20.851Z,12.68
2019-02-19T21:46:47.162Z,13.32
2019-02-19T21:49:13.581Z,13.58
2019-02-19T21:51:39.831Z,12.23
2019-02-19T21:54:06.159Z,11.73
2019-02-19T21:56:32.630Z,12.23
2019-02-19T21:58:59.374Z,12.43
2019-02-19T22:01:26.708Z,13.00
2019-02-19T22:03:53.064Z,12.00
2019-02-19T22:06:19.371Z,13.75
2019-02-19T22:08:46.962Z,12.53
2019-02-19T22:11:14.971Z,14.13
2019-02-19T22:13:41.512Z,13.00
2019-02-19T22:16:07.788Z,13.68
2019-02-19T22:18:34.063Z,14.87
2019-02-19T22:21:05.081Z,14.30
2019-02-19T22:23:31.419Z,15.50
2019-02-19T22:25:57.761Z,14.60
2019-02-19T22:28:24.053Z,16.57
2019-02-19T22:30:52.512Z,16.23
2019-02-19T22:33:20.158Z,16.65
2019-02-19T22:35:46.470Z,16.77
2019-02-19T22:38:12.754Z,16.95
2019-02-19T22:40:40.377Z,16.52
2019-02-19T22:43:07.875Z,16.82
2019-02-19T22:45:34.609Z,17.45
2019-02-19T22:48:00.978Z,17.92
2019-02-19T22:50:27.311Z,18.25
2019-02-19T22:52:53.560Z,18.17
2019-02-19T22:55:38.573Z,18.05
2019-02-19T22:58:05.661Z,17.73
2019-02-19T23:00:41.451Z,18.10
2019-02-19T23:03:08.327Z,17.20
2019-02-19T23:05:35.753Z,16.25
2019-02-19T23:08:02.176Z,18.10
2019-02-19T23:10:28.463Z,18.73
2019-02-19T23:12:55.099Z,19.20
2019-02-19T23:15:21.599Z,19.45
2019-02-19T23:17:47.914Z,18.40
2019-02-19T23:20:14.215Z,18.57
2019-02-19T23:22:40.496Z,18.07
2019-02-19T23:25:06.778Z,18.25
2019-02-19T23:27:33.074Z,17.37
2019-02-19T23:29:59.462Z,18.12
2019-02-19T23:32:25.709Z,18.35
2019-02-19T23:34:53.924Z,18.07
2019-02-19T23:37:20.208Z,17.85
2019-02-19T23:39:46.451Z,18.35
2019-02-19T23:42:12.767Z,17.62
2019-02-19T23:44:39.086Z,17.73
2019-02-19T23:47:05.467Z,18.48
2019-02-19T23:49:31.734Z,18.27
2019-02-19T23:51:57.981Z,18.82
2019-02-19T23:54:24.267Z,19.42
2019-02-19T23:56:50.515Z,18.45
2019-02-19T23:59:16.821Z,19.10
